Time;durP1;ratioP1;P1;durP2;ratioP2;P2;SDS_P1;SDS_P2;PMS_P1;PMS_P2;Temp;Humidity;BMP_temperature;BMP_pressure;BME280_temperature;BME280_humidity;BME280_pressure;Samples;Min_cycle;Max_cycle;Signal;HPM_P1;HPM_P2
2023/01/14 00:00:39;;;;;;;30.10;5.00;;;7.90;99.90;;;;;;4981727;28;20186;-83
2023/01/14 00:03:05;;;;;;;21.73;4.70;;;7.80;99.90;;;;;;4974734;28;20222;-83
2023/01/14 00:05:30;;;;;;;17.10;4.00;;;7.80;99.90;;;;;;5014498;28;20665;-82
2023/01/14 00:07:56;;;;;;;20.80;4.13;;;7.80;99.90;;;;;;5011939;28;20209;-83
2023/01/14 00:10:22;;;;;;;20.73;4.00;;;7.80;99.90;;;;;;5013516;28;20215;-82
2023/01/14 00:12:47;;;;;;;17.23;4.53;;;7.80;99.90;;;;;;4982076;28;20190;-82
2023/01/14 00:15:13;;;;;;;20.43;6.20;;;7.80;99.90;;;;;;4984351;28;20190;-83
2023/01/14 00:17:39;;;;;;;18.40;6.10;;;7.90;99.90;;;;;;4992513;28;20652;-83
2023/01/14 00:20:05;;;;;;;20.43;5.53;;;7.90;99.90;;;;;;4999560;28;20259;-81
2023/01/14 00:22:30;;;;;;;17.50;4.82;;;7.80;99.90;;;;;;5015001;28;20530;-82
2023/01/14 00:24:56;;;;;;;17.60;4.37;;;7.80;99.90;;;;;;4997431;28;20320;-82
2023/01/14 00:27:22;;;;;;;22.60;5.77;;;7.80;99.90;;;;;;5011131;28;20550;-81
2023/01/14 00:29:48;;;;;;;22.57;4.43;;;7.80;99.90;;;;;;5011867;28;20570;-82
2023/01/14 00:32:13;;;;;;;21.40;5.10;;;7.80;99.90;;;;;;4985542;28;20437;-82
2023/01/14 00:34:39;;;;;;;15.40;4.50;;;7.80;99.90;;;;;;5007887;28;20639;-83
2023/01/14 00:37:05;;;;;;;13.80;4.30;;;7.70;99.90;;;;;;4987652;28;20217;-79
2023/01/14 00:39:31;;;;;;;16.80;4.10;;;7.70;99.90;;;;;;5012979;28;20709;-81
2023/01/14 00:41:57;;;;;;;26.17;7.07;;;7.60;99.90;;;;;;4979475;28;20227;-80
2023/01/14 00:44:23;;;;;;;17.93;4.37;;;7.60;99.90;;;;;;5012426;28;20183;-80
2023/01/14 00:46:50;;;;;;;18.13;4.60;;;7.50;99.90;;;;;;5011262;28;20193;-82
2023/01/14 00:49:21;;;;;;;21.75;4.40;;;7.50;99.90;;;;;;5003947;28;20203;-80
2023/01/14 00:51:48;;;;;;;18.10;5.07;;;7.50;99.90;;;;;;5010361;28;20222;-80
2023/01/14 00:54:14;;;;;;;20.13;5.22;;;7.50;99.90;;;;;;5014412;28;20206;-80
2023/01/14 00:56:40;;;;;;;27.05;5.30;;;7.50;99.90;;;;;;5011916;28;20197;-81
2023/01/14 00:59:06;;;;;;;18.27;3.47;;;7.50;99.90;;;;;;5007652;28;20278;-81
2023/01/14 01:01:33;;;;;;;18.65;4.30;;;7.50;99.90;;;;;;5012402;28;20425;-81
2023/01/14 01:03:58;;;;;;;22.98;4.75;;;7.60;99.90;;;;;;5013640;28;20225;-82
2023/01/14 01:06:26;;;;;;;13.90;3.60;;;7.60;99.90;;;;;;5017168;28;20198;-81
2023/01/14 01:08:58;;;;;;;27.20;4.32;;;7.60;99.90;;;;;;5014225;28;20266;-80
2023/01/14 01:11:24;;;;;;;22.17;3.65;;;7.60;99.90;;;;;;5017251;28;20282;-80
2023/01/14 01:13:50;;;;;;;10.97;4.10;;;7.60;99.90;;;;;;5016648;28;20219;-80
2023/01/14 01:16:17;;;;;;;15.57;3.70;;;7.60;99.90;;;;;;5012609;28;20190;-81
2023/01/14 01:18:43;;;;;;;20.58;3.28;;;7.60;99.90;;;;;;4996942;28;20199;-82
2023/01/14 01:21:14;;;;;;;15.50;4.38;;;7.60;99.90;;;;;;5016982;28;20189;-82
2023/01/14 01:23:41;;;;;;;16.10;4.18;;;7.70;99.90;;;;;;5015285;28;20644;-82
2023/01/14 01:26:13;;;;;;;18.25;4.53;;;7.70;99.90;;;;;;5010540;28;20270;-83
2023/01/14 01:28:38;;;;;;;24.08;4.13;;;7.70;99.90;;;;;;5008805;28;20218;-82
2023/01/14 01:31:10;;;;;;;19.40;3.90;;;7.80;99.90;;;;;;4994919;28;20191;-81
2023/01/14 01:33:36;;;;;;;16.10;3.50;;;7.80;99.90;;;;;;5008729;28;20182;-81
2023/01/14 01:36:15;;;;;;;17.90;3.73;;;7.80;99.90;;;;;;4984209;28;20193;-84
2023/01/14 01:38:42;;;;;;;17.90;3.63;;;7.80;99.90;;;;;;5000752;28;20223;-82
2023/01/14 01:41:13;;;;;;;17.38;4.82;;;7.80;99.90;;;;;;5021896;28;20182;-81
2023/01/14 01:43:56;;;;;;;20.13;4.07;;;7.80;99.90;;;;;;5038007;28;20198;-82
2023/01/14 01:46:22;;;;;;;17.27;3.75;;;7.80;99.90;;;;;;5030893;28;20688;-81
2023/01/14 01:48:48;;;;;;;15.17;3.50;;;7.80;99.90;;;;;;5005023;28;20217;-79
2023/01/14 01:51:19;;;;;;;20.00;4.10;;;7.90;99.90;;;;;;5001927;28;20197;-81
2023/01/14 01:53:48;;;;;;;14.20;3.60;;;7.80;99.90;;;;;;5012644;28;20204;-81
2023/01/14 01:56:19;;;;;;;20.48;3.13;;;7.80;99.90;;;;;;5013346;28;20240;-80
2023/01/14 01:58:45;;;;;;;18.13;4.28;;;7.80;99.90;;;;;;5014233;28;20197;-79
2023/01/14 02:01:12;;;;;;;14.52;3.00;;;7.80;99.90;;;;;;5008059;28;20616;-81
2023/01/14 02:03:41;;;;;;;15.15;4.20;;;7.70;99.90;;;;;;5007279;28;20225;-80
2023/01/14 02:06:07;;;;;;;21.75;4.00;;;7.70;99.90;;;;;;5021692;28;20212;-80
2023/01/14 02:08:36;;;;;;;16.05;3.40;;;7.70;99.90;;;;;;5020876;28;20238;-81
2023/01/14 02:11:23;;;;;;;20.60;3.80;;;7.60;99.90;;;;;;5033678;28;20194;-81
2023/01/14 02:13:57;;;;;;;17.17;4.07;;;7.60;99.90;;;;;;5036369;28;20519;-80
2023/01/14 02:16:45;;;;;;;15.05;3.40;;;7.60;99.90;;;;;;5033877;28;20181;-81
2023/01/14 02:19:52;;;;;;;16.95;3.35;;;7.60;99.90;;;;;;5033288;28;20621;-81
2023/01/14 02:22:45;;;;;;;15.80;3.33;;;7.60;99.90;;;;;;5014162;28;20240;-82
2023/01/14 02:25:29;;;;;;;22.67;3.42;;;7.50;99.90;;;;;;5037486;28;20279;-81
2023/01/14 02:28:13;;;;;;;19.88;4.90;;;7.50;99.90;;;;;;5021203;28;20214;-80
2023/01/14 02:30:55;;;;;;;15.13;3.60;;;7.50;99.90;;;;;;5022101;28;20236;-80
2023/01/14 02:33:42;;;;;;;14.05;3.60;;;7.40;99.90;;;;;;5020194;28;20214;-81
2023/01/14 02:36:27;;;;;;;13.38;2.95;;;7.40;99.90;;;;;;5031943;28;20201;-81
2023/01/14 02:39:13;;;;;;;15.25;3.35;;;7.40;99.90;;;;;;5016854;28;20316;-82
2023/01/14 02:44:40;;;;;;;11.93;2.85;;;7.40;99.90;;;;;;5018944;28;20305;-82
2023/01/14 02:47:10;;;;;;;10.52;3.83;;;7.40;99.90;;;;;;5000161;28;20186;-81
2023/01/14 02:49:39;;;;;;;18.52;3.80;;;7.40;99.90;;;;;;5019023;28;20222;-81
2023/01/14 02:52:06;;;;;;;17.42;3.80;;;7.40;99.90;;;;;;5017239;28;20639;-80
2023/01/14 02:54:32;;;;;;;10.40;3.70;;;7.40;99.90;;;;;;5001459;28;20282;-80
2023/01/14 02:57:17;;;;;;;10.63;3.70;;;7.30;99.90;;;;;;5001081;28;20214;-81
2023/01/14 02:59:49;;;;;;;31.80;4.28;;;7.40;99.90;;;;;;5017708;28;20171;-82
2023/01/14 03:02:45;;;;;;;12.48;3.65;;;7.30;99.90;;;;;;5016975;28;20179;-82
2023/01/14 03:05:18;;;;;;;12.57;3.65;;;7.20;99.90;;;;;;5016134;28;20178;-81
2023/01/14 03:07:58;;;;;;;17.77;2.70;;;7.10;99.90;;;;;;5016270;28;20206;-82
2023/01/14 03:10:35;;;;;;;13.32;3.22;;;7.00;99.90;;;;;;5018197;28;20182;-83
2023/01/14 03:13:28;;;;;;;14.07;3.67;;;7.00;99.90;;;;;;5018420;28;20200;-82
2023/01/14 03:16:25;;;;;;;16.52;3.35;;;7.00;99.90;;;;;;5017932;28;20170;-81
2023/01/14 03:19:11;;;;;;;20.60;4.22;;;6.90;99.90;;;;;;5017639;28;20209;-83
2023/01/14 03:21:44;;;;;;;18.77;3.35;;;6.80;99.90;;;;;;4999393;28;20191;-81
2023/01/14 03:24:45;;;;;;;14.63;3.58;;;6.80;99.90;;;;;;5017068;28;20246;-81
2023/01/14 03:27:23;;;;;;;16.65;4.10;;;6.70;99.90;;;;;;5017640;28;20240;-82
2023/01/14 03:29:57;;;;;;;20.42;2.92;;;6.80;99.90;;;;;;5017394;28;20173;-82
2023/01/14 03:32:30;;;;;;;18.15;3.30;;;6.80;99.90;;;;;;5016218;28;20648;-82
2023/01/14 03:35:08;;;;;;;14.10;2.40;;;6.70;99.90;;;;;;5017384;28;20175;-82
2023/01/14 03:37:34;;;;;;;15.88;3.60;;;6.70;99.90;;;;;;5016102;28;20186;-83
2023/01/14 03:40:05;;;;;;;16.08;3.20;;;6.70;99.90;;;;;;5014002;28;20227;-82
2023/01/14 03:42:37;;;;;;;18.05;2.85;;;6.70;99.90;;;;;;4999307;28;20178;-82
2023/01/14 03:45:18;;;;;;;16.83;2.70;;;6.70;99.90;;;;;;5016844;28;20197;-82
2023/01/14 03:47:45;;;;;;;12.10;3.25;;;6.70;99.90;;;;;;5016038;28;20221;-82
2023/01/14 03:50:14;;;;;;;22.30;3.60;;;6.70;99.90;;;;;;4982612;28;20210;-82
2023/01/14 03:52:59;;;;;;;13.73;2.53;;;6.80;99.90;;;;;;5014632;28;20205;-83
2023/01/14 03:55:40;;;;;;;12.35;2.15;;;6.70;99.90;;;;;;5014892;28;20182;-82
2023/01/14 03:58:05;;;;;;;13.80;3.15;;;6.70;99.90;;;;;;5015032;28;20643;-82
2023/01/14 04:00:44;;;;;;;19.60;3.40;;;6.60;99.90;;;;;;5015747;28;20274;-82
2023/01/14 04:03:12;;;;;;;15.63;3.75;;;6.70;99.90;;;;;;5014960;28;20239;-82
2023/01/14 04:05:38;;;;;;;10.40;3.35;;;6.60;99.90;;;;;;4966743;28;20183;-82
2023/01/14 04:08:05;;;;;;;10.50;2.47;;;6.60;99.90;;;;;;4966519;28;20214;-81
2023/01/14 04:10:31;;;;;;;15.00;3.30;;;6.60;99.90;;;;;;4999390;28;20190;-81
2023/01/14 04:15:41;;;;;;;14.27;2.70;;;6.60;99.90;;;;;;5001689;28;20432;-82
2023/01/14 04:18:07;;;;;;;16.53;3.00;;;6.60;99.90;;;;;;4966507;28;20186;-81
2023/01/14 04:20:32;;;;;;;13.40;3.07;;;6.60;99.90;;;;;;5000411;28;20638;-81
2023/01/14 04:22:58;;;;;;;14.43;2.67;;;6.60;99.90;;;;;;4999297;28;20229;-80
2023/01/14 04:25:26;;;;;;;13.63;2.80;;;6.60;99.90;;;;;;4983001;28;20268;-82
2023/01/14 04:27:52;;;;;;;14.85;2.72;;;6.50;99.90;;;;;;4998244;28;20214;-82
2023/01/14 04:30:18;;;;;;;16.60;3.07;;;6.50;99.90;;;;;;4998487;28;20187;-82
2023/01/14 04:32:43;;;;;;;9.57;2.90;;;6.50;99.90;;;;;;4981834;28;20181;-82
2023/01/14 04:35:09;;;;;;;14.07;3.00;;;6.40;99.90;;;;;;4996841;28;20196;-82
2023/01/14 04:37:35;;;;;;;11.40;3.30;;;6.50;99.90;;;;;;4997316;28;20699;-82
2023/01/14 04:40:00;;;;;;;14.47;3.03;;;6.40;99.90;;;;;;5004502;28;20231;-82
2023/01/14 04:42:26;;;;;;;11.00;2.47;;;6.40;99.90;;;;;;4997209;28;20188;-82
2023/01/14 04:44:59;;;;;;;6.73;2.60;;;6.40;99.90;;;;;;4980984;28;20184;-83
2023/01/14 04:47:25;;;;;;;12.23;3.03;;;6.40;99.90;;;;;;4981957;28;20183;-82
2023/01/14 04:49:51;;;;;;;22.98;4.38;;;6.30;99.90;;;;;;5003654;28;20187;-83
2023/01/14 04:52:17;;;;;;;16.07;2.77;;;6.30;99.90;;;;;;5002106;28;20286;-82
2023/01/14 04:54:43;;;;;;;11.23;2.40;;;6.30;99.90;;;;;;4981910;28;20411;-82
2023/01/14 04:57:09;;;;;;;11.60;3.10;;;6.20;99.90;;;;;;4998501;28;20183;-83
2023/01/14 04:59:35;;;;;;;16.40;2.90;;;6.20;99.90;;;;;;4949294;28;20434;-82
2023/01/14 05:02:00;;;;;;;12.13;3.50;;;6.20;99.90;;;;;;4981151;28;20187;-82
2023/01/14 05:04:26;;;;;;;8.97;2.20;;;6.20;99.90;;;;;;4981359;28;20183;-83
2023/01/14 05:06:53;;;;;;;13.48;2.63;;;6.20;99.90;;;;;;4981031;28;20179;-82
2023/01/14 05:09:18;;;;;;;14.90;3.50;;;6.20;99.90;;;;;;4980826;28;20303;-82
2023/01/14 05:11:44;;;;;;;10.10;2.53;;;6.20;99.90;;;;;;4998371;28;20199;-82
2023/01/14 05:14:09;;;;;;;18.23;3.00;;;6.20;99.90;;;;;;4980978;28;20696;-82
2023/01/14 05:16:35;;;;;;;13.13;2.67;;;6.10;99.90;;;;;;4981249;28;20641;-82
2023/01/14 05:19:01;;;;;;;8.30;2.27;;;6.20;99.90;;;;;;4964771;28;20563;-82
2023/01/14 05:21:26;;;;;;;13.83;3.50;;;6.20;99.90;;;;;;4964802;28;20186;-82
2023/01/14 05:23:52;;;;;;;17.20;3.30;;;6.20;99.90;;;;;;4980610;28;20675;-83
2023/01/14 05:26:18;;;;;;;14.90;3.33;;;6.20;99.90;;;;;;4980452;28;20187;-82
2023/01/14 05:28:43;;;;;;;16.87;3.23;;;6.20;99.90;;;;;;4980498;28;20203;-82
2023/01/14 05:31:09;;;;;;;11.97;2.03;;;6.20;99.90;;;;;;4996082;28;20179;-83
2023/01/14 05:33:34;;;;;;;11.73;3.60;;;6.20;99.90;;;;;;4997957;28;20191;-82
2023/01/14 05:36:01;;;;;;;10.17;2.80;;;6.20;99.90;;;;;;4979835;28;20230;-82
2023/01/14 05:38:27;;;;;;;10.60;2.75;;;6.20;99.90;;;;;;4963791;28;20187;-82
2023/01/14 05:40:53;;;;;;;8.77;3.10;;;6.30;99.90;;;;;;4999379;28;20213;-83
2023/01/14 05:46:06;;;;;;;10.10;2.80;;;6.30;99.90;;;;;;5001482;28;20573;-83
2023/01/14 05:48:32;;;;;;;14.57;2.78;;;6.30;99.90;;;;;;4998996;28;20206;-83
2023/01/14 05:50:59;;;;;;;12.33;2.90;;;6.30;99.90;;;;;;4998292;28;20180;-82
2023/01/14 05:53:29;;;;;;;18.27;3.55;;;6.30;99.90;;;;;;4999308;28;20421;-83
2023/01/14 05:55:56;;;;;;;13.02;2.67;;;6.30;99.90;;;;;;4999322;28;20192;-83
2023/01/14 05:58:21;;;;;;;10.65;2.65;;;6.30;99.90;;;;;;4999186;28;20570;-82
2023/01/14 06:06:25;;;;;;;13.98;3.22;;;6.40;99.90;;;;;;5001649;28;20261;-82
2023/01/14 06:08:54;;;;;;;11.73;2.65;;;6.50;99.90;;;;;;5008535;28;20297;-83
2023/01/14 06:11:20;;;;;;;13.25;2.88;;;6.50;99.90;;;;;;5015168;28;20263;-82
2023/01/14 06:13:50;;;;;;;13.65;3.00;;;6.60;99.90;;;;;;5016580;28;20203;-82
2023/01/14 06:16:16;;;;;;;10.02;3.13;;;6.60;99.90;;;;;;4999052;28;20583;-82
2023/01/14 06:18:42;;;;;;;8.75;2.83;;;6.60;99.90;;;;;;4999169;28;20188;-82
2023/01/14 06:21:14;;;;;;;11.80;2.43;;;6.70;99.90;;;;;;5015989;28;20268;-83
2023/01/14 06:23:40;;;;;;;6.15;2.15;;;6.70;99.90;;;;;;4999278;28;20758;-82
2023/01/14 06:26:11;;;;;;;11.27;2.63;;;6.80;99.90;;;;;;4998757;28;20186;-82
2023/01/14 06:28:37;;;;;;;12.95;3.40;;;6.80;99.90;;;;;;5015021;28;20465;-83
2023/01/14 06:31:11;;;;;;;9.68;2.20;;;6.80;99.90;;;;;;5010903;28;20201;-83
2023/01/14 06:33:36;;;;;;;19.58;3.03;;;6.90;99.90;;;;;;5011888;28;20210;-83
2023/01/14 06:36:02;;;;;;;12.30;2.90;;;6.90;99.90;;;;;;4993887;28;20202;-82
2023/01/14 06:38:28;;;;;;;11.90;2.60;;;6.90;99.90;;;;;;4996261;28;20422;-82
2023/01/14 06:40:58;;;;;;;15.57;3.60;;;6.90;99.90;;;;;;4978568;28;20423;-82
2023/01/14 06:43:23;;;;;;;9.05;2.78;;;7.00;99.90;;;;;;4979130;28;20194;-82
2023/01/14 06:45:53;;;;;;;7.83;2.67;;;6.90;99.90;;;;;;4978952;28;20187;-82
2023/01/14 06:48:19;;;;;;;6.75;2.75;;;6.90;99.90;;;;;;4998415;28;20255;-82
2023/01/14 06:50:46;;;;;;;17.60;3.27;;;6.90;99.90;;;;;;4996112;28;20188;-83
2023/01/14 06:53:11;;;;;;;14.65;2.53;;;7.00;99.90;;;;;;4963403;28;20183;-83
2023/01/14 06:55:37;;;;;;;13.87;2.50;;;6.90;99.90;;;;;;4947049;28;20287;-82
2023/01/14 06:58:03;;;;;;;11.83;2.30;;;6.90;99.90;;;;;;4978594;28;20191;-83
2023/01/14 07:00:28;;;;;;;13.57;2.33;;;6.90;99.90;;;;;;4981394;28;20187;-82
2023/01/14 07:02:54;;;;;;;13.50;2.20;;;6.90;99.90;;;;;;4981899;28;20225;-82
2023/01/14 07:05:20;;;;;;;15.60;2.87;;;6.80;99.90;;;;;;4982112;28;20269;-82
2023/01/14 07:07:49;;;;;;;11.38;3.03;;;6.90;99.90;;;;;;5015506;28;20257;-83
2023/01/14 07:10:16;;;;;;;6.38;2.60;;;6.90;99.90;;;;;;4997756;28;20554;-82
2023/01/14 07:12:50;;;;;;;7.18;3.17;;;6.90;99.90;;;;;;4998218;28;20562;-82
2023/01/14 07:15:18;;;;;;;10.38;2.50;;;6.90;99.90;;;;;;5015178;28;20171;-81
2023/01/14 07:17:45;;;;;;;9.20;2.42;;;6.80;99.90;;;;;;5015425;28;20193;-82
2023/01/14 07:20:11;;;;;;;13.88;2.90;;;6.80;99.90;;;;;;5015100;28;20182;-82
2023/01/14 07:22:37;;;;;;;9.55;3.10;;;6.80;99.90;;;;;;4981566;28;20609;-82
2023/01/14 07:25:04;;;;;;;5.87;2.30;;;6.80;99.90;;;;;;4997336;28;20274;-81
2023/01/14 07:27:30;;;;;;;15.38;2.38;;;6.80;99.90;;;;;;4981161;28;20236;-82
2023/01/14 07:29:57;;;;;;;11.13;2.58;;;6.80;99.90;;;;;;4981279;28;20189;-82
2023/01/14 07:32:22;;;;;;;11.75;2.63;;;6.80;99.90;;;;;;4996837;28;20186;-82
2023/01/14 07:34:48;;;;;;;10.30;2.97;;;6.80;99.90;;;;;;4997507;28;20190;-81
2023/01/14 07:37:14;;;;;;;11.13;2.87;;;6.70;99.90;;;;;;4984846;28;20454;-81
2023/01/14 07:39:40;;;;;;;9.57;3.57;;;6.70;99.90;;;;;;4990972;28;20986;-81
2023/01/14 07:42:06;;;;;;;16.02;2.97;;;6.70;99.90;;;;;;5014044;28;20236;-82
2023/01/14 07:44:32;;;;;;;10.53;2.33;;;6.70;99.90;;;;;;4997898;28;20217;-81
2023/01/14 07:46:57;;;;;;;8.80;2.80;;;6.70;99.90;;;;;;4997619;28;20187;-82
2023/01/14 07:49:24;;;;;;;12.17;2.97;;;6.70;99.90;;;;;;5013446;28;20264;-82
2023/01/14 07:51:50;;;;;;;7.65;2.38;;;6.70;99.90;;;;;;5013853;28;20202;-81
2023/01/14 07:54:17;;;;;;;6.97;2.92;;;6.70;99.90;;;;;;4980495;28;20182;-82
2023/01/14 07:56:43;;;;;;;6.88;2.25;;;6.80;99.90;;;;;;5013689;28;20189;-82
2023/01/14 07:59:08;;;;;;;9.13;2.17;;;6.80;99.90;;;;;;4980569;28;20190;-82
2023/01/14 08:01:34;;;;;;;7.10;1.43;;;6.80;99.90;;;;;;5013698;28;20428;-81
2023/01/14 08:04:00;;;;;;;5.20;1.60;;;6.90;99.90;;;;;;5014123;28;20185;-82
2023/01/14 08:06:27;;;;;;;4.53;1.40;;;7.00;99.90;;;;;;5014593;28;20189;-82
2023/01/14 08:08:53;;;;;;;4.85;1.13;;;7.00;99.90;;;;;;5013332;28;20222;-82
2023/01/14 08:11:18;;;;;;;1.83;1.00;;;7.10;99.90;;;;;;4996691;28;20584;-82
2023/01/14 08:13:44;;;;;;;3.47;1.00;;;7.20;99.90;;;;;;5017015;28;20185;-82
2023/01/14 08:16:10;;;;;;;2.70;1.43;;;7.20;99.90;;;;;;5018760;28;20538;-82
2023/01/14 08:18:36;;;;;;;4.65;1.27;;;7.30;99.90;;;;;;5001469;28;20187;-82
2023/01/14 08:21:05;;;;;;;2.97;1.25;;;7.30;99.90;;;;;;5001340;28;20189;-84
2023/01/14 08:23:34;;;;;;;2.97;1.40;;;7.40;99.90;;;;;;5018646;28;20174;-82
2023/01/14 08:26:01;;;;;;;2.75;1.27;;;7.40;99.90;;;;;;5017407;28;20179;-82
2023/01/14 08:28:28;;;;;;;2.25;0.95;;;7.40;99.90;;;;;;5000678;28;20221;-82
2023/01/14 08:31:01;;;;;;;2.17;1.70;;;7.40;99.90;;;;;;5018591;28;20554;-82
2023/01/14 08:33:27;;;;;;;2.03;1.02;;;7.40;99.90;;;;;;5018023;28;20189;-83
2023/01/14 08:35:52;;;;;;;2.20;1.00;;;7.40;99.90;;;;;;5017309;28;20183;-83
2023/01/14 08:38:18;;;;;;;3.93;1.00;;;7.50;99.90;;;;;;5000461;28;20182;-82
2023/01/14 08:40:44;;;;;;;3.30;0.97;;;7.50;99.90;;;;;;5037210;28;20236;-83
2023/01/14 08:43:09;;;;;;;1.33;0.80;;;7.50;99.90;;;;;;5020215;28;20594;-83
2023/01/14 08:45:35;;;;;;;2.27;1.37;;;7.60;99.90;;;;;;5020377;28;20180;-81
2023/01/14 08:48:00;;;;;;;2.10;0.87;;;7.60;99.90;;;;;;5004222;28;20245;-81
2023/01/14 08:50:26;;;;;;;3.10;1.30;;;7.70;99.90;;;;;;5003823;28;20178;-81
2023/01/14 08:52:52;;;;;;;3.80;1.23;;;7.70;99.90;;;;;;5004111;28;20182;-82
2023/01/14 08:55:17;;;;;;;2.13;0.70;;;7.70;99.90;;;;;;5037189;28;20202;-82
2023/01/14 08:57:43;;;;;;;2.13;0.90;;;7.80;99.90;;;;;;5020041;28;20186;-83
2023/01/14 09:00:09;;;;;;;3.20;0.80;;;7.80;99.90;;;;;;5003767;28;20208;-81
2023/01/14 09:02:35;;;;;;;1.20;1.00;;;7.90;99.90;;;;;;5003234;28;20265;-81
2023/01/14 09:05:01;;;;;;;2.90;1.27;;;7.90;99.90;;;;;;5019902;28;20209;-81
2023/01/14 09:18:23;;;;;;;2.35;0.75;;;8.10;99.90;;;;;;5022937;28;20181;-82
2023/01/14 09:20:49;;;;;;;3.60;0.90;;;8.10;99.90;;;;;;5020105;28;20175;-81
2023/01/14 09:23:15;;;;;;;1.90;1.00;;;8.10;99.90;;;;;;5020033;28;20189;-81
2023/01/14 09:25:40;;;;;;;3.07;1.07;;;8.20;99.90;;;;;;4986318;28;20639;-81
2023/01/14 09:28:06;;;;;;;1.53;0.73;;;8.20;99.90;;;;;;5003250;28;20224;-84
2023/01/14 09:30:31;;;;;;;2.13;0.93;;;8.20;99.90;;;;;;5002980;28;20182;-81
2023/01/14 09:32:58;;;;;;;1.00;0.80;;;8.30;99.90;;;;;;5003263;28;20175;-82
2023/01/14 09:35:24;;;;;;;1.65;1.13;;;8.30;99.90;;;;;;5002703;28;20188;-82
2023/01/14 09:37:49;;;;;;;3.93;0.80;;;8.30;99.90;;;;;;5019360;28;20614;-82
2023/01/14 09:40:15;;;;;;;2.47;0.77;;;8.40;99.90;;;;;;5002527;28;20257;-81
2023/01/14 09:42:50;;;;;;;2.42;1.50;;;8.40;99.90;;;;;;5003082;28;20213;-81
2023/01/14 09:45:30;;;;;;;1.17;0.80;;;8.40;99.90;;;;;;5018997;28;20180;-82
2023/01/14 09:47:59;;;;;;;1.05;0.82;;;8.50;99.90;;;;;;5037088;28;20263;-82
2023/01/14 09:50:49;;;;;;;1.23;0.73;;;8.50;99.90;;;;;;5037600;28;20178;-82
2023/01/14 09:53:49;;;;;;;3.20;0.98;;;8.60;99.90;;;;;;5021226;28;20190;-83
2023/01/14 09:56:24;;;;;;;2.97;1.20;;;8.60;99.90;;;;;;5022113;28;20209;-84
2023/01/14 09:58:59;;;;;;;2.08;1.05;;;8.70;99.90;;;;;;5020104;28;20492;-85
2023/01/14 10:01:36;;;;;;;2.95;0.98;;;8.70;99.90;;;;;;5037029;28;20546;-79
2023/01/14 10:04:28;;;;;;;3.72;0.98;;;8.70;99.90;;;;;;5019489;28;20177;-79
2023/01/14 10:06:57;;;;;;;3.95;1.60;;;8.80;99.90;;;;;;5037209;28;20182;-78
2023/01/14 10:09:43;;;;;;;1.30;0.80;;;8.80;99.90;;;;;;5018635;28;20641;-79
2023/01/14 10:12:18;;;;;;;2.50;1.10;;;8.90;99.90;;;;;;5018819;28;20206;-80
2023/01/14 10:15:14;;;;;;;3.85;1.15;;;8.90;99.90;;;;;;5018502;28;20174;-78
2023/01/14 10:17:43;;;;;;;3.58;0.80;;;8.90;99.90;;;;;;5015117;28;20293;-78
2023/01/14 10:20:22;;;;;;;1.25;0.65;;;9.00;99.90;;;;;;5018801;28;20233;-78
2023/01/14 10:22:57;;;;;;;2.38;1.15;;;9.00;99.90;;;;;;5036395;28;20177;-78
2023/01/14 10:25:23;;;;;;;4.20;1.20;;;9.00;99.90;;;;;;5027376;28;20214;-80
2023/01/14 10:27:53;;;;;;;2.95;1.48;;;9.00;99.90;;;;;;4992718;28;20220;-78
2023/01/14 10:30:32;;;;;;;2.45;0.75;;;9.10;99.90;;;;;;5036884;28;20260;-78
2023/01/14 10:33:02;;;;;;;5.85;1.13;;;9.10;99.90;;;;;;5019402;28;20197;-77
2023/01/14 10:35:39;;;;;;;3.42;1.05;;;9.10;99.90;;;;;;5018219;28;20551;-77
2023/01/14 10:38:05;;;;;;;5.25;1.13;;;9.00;99.90;;;;;;5002032;28;20530;-78
2023/01/14 10:40:31;;;;;;;7.60;1.20;;;9.00;99.90;;;;;;5036624;28;20241;-79
2023/01/14 10:42:59;;;;;;;2.25;0.98;;;8.90;99.90;;;;;;4986153;28;20196;-78
2023/01/14 10:45:25;;;;;;;2.90;1.20;;;8.80;99.90;;;;;;5036130;28;20535;-79
2023/01/14 10:47:55;;;;;;;5.88;1.42;;;8.80;99.90;;;;;;5002753;28;20253;-78
2023/01/14 10:50:27;;;;;;;7.70;1.10;;;8.70;99.90;;;;;;5018686;28;20171;-79
2023/01/14 10:52:53;;;;;;;2.95;1.35;;;8.60;99.90;;;;;;5002217;28;20615;-79
2023/01/14 10:55:28;;;;;;;2.22;0.95;;;8.60;99.90;;;;;;5035995;28;20249;-78
2023/01/14 10:58:26;;;;;;;5.38;1.05;;;8.50;99.90;;;;;;5002704;28;20548;-78
2023/01/14 11:01:00;;;;;;;3.75;1.00;;;8.50;99.90;;;;;;5017951;28;20276;-78
2023/01/14 11:03:28;;;;;;;2.92;1.00;;;8.50;99.90;;;;;;5036156;28;20170;-78
2023/01/14 11:06:15;;;;;;;2.78;1.10;;;8.40;99.90;;;;;;5018813;28;20249;-78
2023/01/14 11:08:47;;;;;;;2.17;1.00;;;8.40;99.90;;;;;;5018601;28;20252;-78
2023/01/14 11:11:37;;;;;;;2.80;1.10;;;8.40;99.90;;;;;;5018378;28;20280;-79
2023/01/14 11:14:27;;;;;;;3.80;1.10;;;8.30;99.90;;;;;;5019243;28;20192;-77
2023/01/14 11:16:53;;;;;;;1.60;1.50;;;8.40;99.90;;;;;;5036378;28;20188;-77
2023/01/14 11:19:21;;;;;;;2.77;0.80;;;8.40;99.90;;;;;;5018264;28;20589;-78
2023/01/14 11:21:56;;;;;;;1.67;0.85;;;8.30;99.90;;;;;;5036295;28;20615;-78
2023/01/14 11:24:37;;;;;;;2.05;1.00;;;8.40;99.90;;;;;;5017669;28;20200;-77
2023/01/14 11:27:25;;;;;;;4.78;0.85;;;8.40;99.90;;;;;;5018315;28;20177;-80
2023/01/14 11:29:59;;;;;;;3.00;1.05;;;8.40;99.90;;;;;;5017546;28;20218;-78
2023/01/14 11:32:34;;;;;;;1.70;0.70;;;8.40;99.90;;;;;;4998381;28;20175;-76
2023/01/14 11:35:02;;;;;;;8.00;1.10;;;8.40;99.90;;;;;;5016080;28;20536;-79
2023/01/14 11:37:47;;;;;;;3.13;1.10;;;8.40;99.90;;;;;;4982588;28;20175;-79
2023/01/14 11:43:25;;;;;;;1.70;0.90;;;8.40;99.90;;;;;;5015547;28;20178;-78
2023/01/14 11:46:12;;;;;;;2.60;0.80;;;8.50;99.90;;;;;;4998233;28;20175;-78
2023/01/14 11:48:40;;;;;;;2.03;0.80;;;8.50;99.90;;;;;;4997272;28;20238;-78
2023/01/14 11:51:20;;;;;;;1.23;0.77;;;8.50;99.90;;;;;;4998561;28;20545;-78
2023/01/14 11:53:52;;;;;;;1.38;0.80;;;8.50;99.90;;;;;;4998681;28;20262;-78
2023/01/14 11:56:37;;;;;;;2.28;0.60;;;8.50;99.90;;;;;;4998291;28;20253;-79
2023/01/14 11:59:31;;;;;;;1.85;0.93;;;8.50;99.90;;;;;;4998109;28;20209;-78
2023/01/14 12:02:12;;;;;;;2.60;0.95;;;8.50;99.90;;;;;;4981770;28;20269;-78
2023/01/14 12:04:47;;;;;;;2.40;0.90;;;8.50;99.90;;;;;;4997495;28;20262;-78
2023/01/14 12:07:25;;;;;;;0.90;0.70;;;8.50;99.90;;;;;;4997647;28;20186;-78
2023/01/14 12:10:02;;;;;;;1.23;0.85;;;8.50;99.90;;;;;;4997730;28;20222;-78
2023/01/14 12:16:48;;;;;;;1.45;0.80;;;8.50;99.90;;;;;;4997751;28;20185;-78
2023/01/14 12:18:39;;;;;;;4.07;0.85;;;8.50;99.90;;;;;;5015543;28;20228;-78
2023/01/14 12:21:06;;;;;;;2.22;0.80;;;8.50;99.90;;;;;;5015545;28;20177;-78
2023/01/14 12:23:41;;;;;;;1.50;0.80;;;8.50;99.90;;;;;;4997788;28;20595;-79
2023/01/14 12:26:19;;;;;;;5.10;0.80;;;8.60;99.90;;;;;;5015572;28;20532;-78
2023/01/14 12:28:50;;;;;;;0.80;0.70;;;8.60;99.90;;;;;;5015044;28;20204;-78
2023/01/14 12:31:33;;;;;;;1.05;0.77;;;8.60;99.90;;;;;;5015300;28;20254;-78
2023/01/14 12:34:09;;;;;;;1.15;0.60;;;8.60;99.90;;;;;;4997781;28;20262;-79
2023/01/14 12:36:52;;;;;;;1.65;0.80;;;8.60;99.90;;;;;;5013713;28;20175;-79
2023/01/14 12:45:46;;;;;;;2.00;0.70;;;8.60;99.90;;;;;;5022112;28;20546;-78
2023/01/14 12:48:20;;;;;;;0.98;0.60;;;8.70;99.90;;;;;;5016848;28;20289;-78
2023/01/14 12:50:58;;;;;;;0.80;0.50;;;8.70;99.90;;;;;;5016806;28;20167;-78
2023/01/14 12:53:28;;;;;;;0.75;0.63;;;8.70;99.90;;;;;;4999056;28;20179;-78
2023/01/14 12:55:58;;;;;;;0.73;0.60;;;8.70;99.90;;;;;;5015749;28;20178;-78
2023/01/14 12:58:28;;;;;;;0.70;0.60;;;8.70;99.90;;;;;;5018456;28;20189;-78
2023/01/14 13:01:07;;;;;;;0.90;0.55;;;8.80;99.90;;;;;;5016061;28;20182;-78
2023/01/14 13:03:43;;;;;;;0.70;0.50;;;8.80;99.90;;;;;;5038746;28;20209;-78
2023/01/14 13:06:16;;;;;;;1.23;0.50;;;8.80;99.90;;;;;;5039527;28;20173;-77
2023/01/14 13:08:42;;;;;;;0.70;0.70;;;8.90;99.90;;;;;;5022024;28;20293;-78
2023/01/14 13:11:20;;;;;;;1.33;0.80;;;8.90;99.90;;;;;;5021850;28;20225;-77
2023/01/14 13:13:54;;;;;;;0.88;0.63;;;9.00;99.90;;;;;;5022716;28;20170;-80
2023/01/14 13:16:26;;;;;;;2.28;0.63;;;9.00;99.90;;;;;;5039430;28;20178;-82
2023/01/14 13:18:59;;;;;;;0.88;0.65;;;9.10;99.90;;;;;;5039665;28;20202;-77
2023/01/14 13:21:55;;;;;;;0.70;0.50;;;9.20;99.90;;;;;;5039023;28;20281;-76
2023/01/14 13:24:31;;;;;;;0.90;0.52;;;9.20;99.90;;;;;;5020981;28;20174;-80
2023/01/14 13:26:59;;;;;;;0.60;0.50;;;9.30;99.90;;;;;;5039286;28;20650;-77
2023/01/14 13:29:30;;;;;;;0.60;0.50;;;9.20;99.90;;;;;;5038917;28;20736;-77
2023/01/14 13:31:57;;;;;;;1.13;0.60;;;9.30;99.90;;;;;;5039330;28;20224;-76
2023/01/14 13:34:23;;;;;;;0.80;0.50;;;9.30;99.90;;;;;;5021398;28;20228;-77
2023/01/14 13:37:18;;;;;;;1.50;0.90;;;9.30;99.90;;;;;;5020854;28;20630;-77
2023/01/14 13:39:53;;;;;;;0.85;0.50;;;9.30;99.90;;;;;;5020877;28;21015;-77
2023/01/14 13:42:27;;;;;;;0.70;0.60;;;9.30;99.90;;;;;;5021482;28;20203;-77
2023/01/14 13:44:55;;;;;;;0.60;0.50;;;9.30;99.90;;;;;;5038657;28;20170;-77
2023/01/14 13:47:27;;;;;;;1.20;0.57;;;9.30;99.90;;;;;;5038849;28;20261;-77
2023/01/14 13:50:18;;;;;;;3.25;0.70;;;9.40;99.90;;;;;;5020397;28;20213;-79